Time;durP1;ratioP1;P1;durP2;ratioP2;P2;SDS_P1;SDS_P2;PMS_P1;PMS_P2;Temp;Humidity;BMP_temperature;BMP_pressure;BME280_temperature;BME280_humidity;BME280_pressure;Samples;Min_cycle;Max_cycle;Signal;HPM_P1;HPM_P2
2022/12/30 00:01:21;;;;;;;5.75;2.58;;;12.00;96.70;;;;;;4898605;29;20646;-73
2022/12/30 00:03:50;;;;;;;4.53;2.60;;;12.00;96.70;;;;;;4892954;29;20119;-74
2022/12/30 00:06:21;;;;;;;4.68;2.47;;;11.90;96.70;;;;;;4892443;29;20041;-74
2022/12/30 00:08:52;;;;;;;3.30;2.08;;;11.90;96.70;;;;;;4897243;29;20048;-73
2022/12/30 00:11:22;;;;;;;3.90;2.40;;;11.90;96.70;;;;;;4890227;29;20589;-73
2022/12/30 00:33:53;;;;;;;5.15;2.60;;;11.90;96.70;;;;;;4892838;29;20052;-73
2022/12/30 00:36:22;;;;;;;5.22;3.28;;;11.90;96.70;;;;;;4888781;29;20415;-74
2022/12/30 00:38:50;;;;;;;6.55;3.35;;;11.90;96.70;;;;;;4890636;29;20052;-73
2022/12/30 00:44:07;;;;;;;7.28;4.18;;;11.90;96.70;;;;;;4903132;29;20066;-73
2022/12/30 00:46:37;;;;;;;6.38;3.95;;;11.80;96.70;;;;;;4891428;29;20044;-73
2022/12/30 00:57:26;;;;;;;8.35;4.32;;;11.90;96.70;;;;;;4914347;29;20361;-73
2022/12/30 00:59:54;;;;;;;7.03;3.80;;;11.90;96.70;;;;;;4921457;29;20040;-74
2022/12/30 01:02:22;;;;;;;5.97;3.40;;;11.90;96.70;;;;;;4909604;29;20131;-73
2022/12/30 01:04:50;;;;;;;5.28;2.90;;;11.80;96.70;;;;;;4899213;29;20178;-73
2022/12/30 01:07:18;;;;;;;4.47;2.95;;;11.80;96.70;;;;;;4896657;29;20068;-73
2022/12/30 01:09:46;;;;;;;4.93;2.83;;;11.70;96.70;;;;;;4900816;29;20143;-73
2022/12/30 01:12:14;;;;;;;5.38;2.80;;;11.80;96.70;;;;;;4884482;29;20060;-73
2022/12/30 01:14:46;;;;;;;6.43;2.97;;;11.80;96.70;;;;;;4895458;29;20426;-74
2022/12/30 01:17:17;;;;;;;8.43;3.30;;;11.70;96.70;;;;;;4915076;29;20507;-74
2022/12/30 01:19:45;;;;;;;3.63;2.55;;;11.80;96.70;;;;;;4883521;29;20052;-74
2022/12/30 01:22:13;;;;;;;4.80;2.33;;;11.70;96.70;;;;;;4890476;29;20047;-74
2022/12/30 01:24:42;;;;;;;4.50;2.22;;;11.70;96.70;;;;;;4907536;29;20050;-75
2022/12/30 01:27:11;;;;;;;3.53;2.13;;;11.70;96.70;;;;;;4914263;29;20049;-74
2022/12/30 01:29:41;;;;;;;5.15;2.17;;;11.80;96.70;;;;;;4890459;29;20051;-74
2022/12/30 01:32:15;;;;;;;3.58;1.85;;;11.70;96.70;;;;;;4917577;29;20063;-74
2022/12/30 01:34:43;;;;;;;2.83;1.80;;;11.60;96.70;;;;;;4903150;29;20036;-74
2022/12/30 01:37:12;;;;;;;3.38;2.00;;;11.70;96.70;;;;;;4891976;29;20044;-74
2022/12/30 01:39:40;;;;;;;4.93;2.35;;;11.60;96.70;;;;;;4897439;29;20102;-74
2022/12/30 01:42:17;;;;;;;3.03;2.22;;;11.50;96.70;;;;;;4916473;29;20059;-74
2022/12/30 01:45:01;;;;;;;5.70;2.70;;;11.60;96.70;;;;;;4887657;29;20065;-74
2022/12/30 01:47:38;;;;;;;5.28;3.22;;;11.50;96.70;;;;;;4894387;29;20071;-74
2022/12/30 01:50:18;;;;;;;7.72;4.00;;;11.40;96.70;;;;;;4899072;29;20065;-74
2022/12/30 01:52:50;;;;;;;8.45;4.03;;;11.50;96.70;;;;;;4887268;29;20496;-74
2022/12/30 01:55:23;;;;;;;5.72;3.70;;;11.50;96.70;;;;;;4890683;29;20056;-74
2022/12/30 01:57:53;;;;;;;8.52;4.13;;;11.50;96.70;;;;;;4903058;29;20571;-74
2022/12/30 02:00:21;;;;;;;9.00;4.32;;;11.50;96.70;;;;;;4905875;29;20119;-75
2022/12/30 02:02:52;;;;;;;6.15;4.10;;;11.50;96.70;;;;;;4895848;29;20075;-75
2022/12/30 02:05:24;;;;;;;5.38;4.30;;;11.50;96.70;;;;;;4899397;29;20056;-75
2022/12/30 02:07:59;;;;;;;7.65;4.57;;;11.50;96.70;;;;;;4890928;29;20060;-74
2022/12/30 02:10:28;;;;;;;8.20;5.18;;;11.60;96.70;;;;;;4888295;29;20052;-75
2022/12/30 02:12:58;;;;;;;7.93;4.50;;;11.60;96.70;;;;;;4890368;29;20048;-74
2022/12/30 02:15:33;;;;;;;7.80;4.43;;;11.60;96.70;;;;;;4895864;29;20055;-74
2022/12/30 02:18:11;;;;;;;5.60;4.28;;;11.60;96.70;;;;;;4895622;29;20887;-74
2022/12/30 02:21:18;;;;;;;6.55;4.40;;;11.60;96.70;;;;;;4893433;29;20055;-74
2022/12/30 02:24:16;;;;;;;10.32;5.13;;;11.60;96.70;;;;;;4889366;29;20268;-74
2022/12/30 02:27:11;;;;;;;7.05;4.68;;;11.60;96.70;;;;;;4902138;29;20521;-74
2022/12/30 02:30:13;;;;;;;7.18;4.88;;;11.60;96.70;;;;;;4903294;29;20103;-74
2022/12/30 02:33:20;;;;;;;7.28;4.45;;;11.60;96.70;;;;;;4894649;29;20147;-74
2022/12/30 02:36:00;;;;;;;7.95;4.43;;;11.60;96.70;;;;;;4837057;29;20058;-74
2022/12/30 02:38:37;;;;;;;6.32;3.60;;;11.60;96.70;;;;;;4833511;29;20050;-74
2022/12/30 02:46:56;;;;;;;6.15;3.30;;;11.60;96.70;;;;;;4838399;29;20102;-73
2022/12/30 02:49:27;;;;;;;5.87;3.30;;;11.70;96.70;;;;;;4821818;29;20064;-72
2022/12/30 02:52:15;;;;;;;6.13;3.60;;;11.60;96.70;;;;;;4822985;29;20114;-73
2022/12/30 02:54:46;;;;;;;8.65;3.45;;;11.70;96.70;;;;;;4838549;29;20058;-73
2022/12/30 02:57:26;;;;;;;5.25;2.42;;;11.60;96.70;;;;;;4840428;29;20049;-73
2022/12/30 03:06:14;;;;;;;3.10;2.30;;;11.60;96.70;;;;;;4847897;29;20423;-73
2022/12/30 03:08:48;;;;;;;2.85;2.00;;;11.50;96.70;;;;;;4901025;29;20063;-73
2022/12/30 03:11:18;;;;;;;5.40;2.15;;;11.50;96.70;;;;;;4895625;29;20052;-74
2022/12/30 03:13:59;;;;;;;2.65;1.73;;;11.50;96.70;;;;;;4900348;29;20047;-73
2022/12/30 03:16:31;;;;;;;3.33;2.05;;;11.50;96.70;;;;;;4893265;29;20049;-73
2022/12/30 03:19:02;;;;;;;3.63;2.45;;;11.50;96.70;;;;;;4896823;29;20661;-73
2022/12/30 03:21:36;;;;;;;3.05;1.80;;;11.40;96.70;;;;;;4893384;29;20044;-73
2022/12/30 03:27:03;;;;;;;6.65;1.90;;;11.40;96.70;;;;;;4895587;29;20112;-73
2022/12/30 03:29:35;;;;;;;2.40;1.60;;;11.40;96.70;;;;;;4896733;29;20103;-74
2022/12/30 03:32:05;;;;;;;5.15;1.90;;;11.40;96.70;;;;;;4899297;29;20052;-73
2022/12/30 03:34:34;;;;;;;4.07;1.67;;;11.40;96.70;;;;;;4898152;29;20112;-73
2022/12/30 03:37:13;;;;;;;3.20;1.42;;;11.40;96.70;;;;;;4903896;29;20048;-73
2022/12/30 03:39:46;;;;;;;3.38;1.77;;;11.50;96.70;;;;;;4892410;29;20488;-73
2022/12/30 03:42:16;;;;;;;2.83;1.92;;;11.50;96.70;;;;;;4899930;29;20036;-73
2022/12/30 03:44:45;;;;;;;5.82;1.77;;;11.40;96.70;;;;;;4913246;29;20139;-73
2022/12/30 03:47:14;;;;;;;3.58;1.90;;;11.40;96.70;;;;;;4894830;29;20392;-73
2022/12/30 03:49:43;;;;;;;4.63;1.60;;;11.40;96.70;;;;;;4907695;29;20035;-73
2022/12/30 03:52:15;;;;;;;4.38;1.80;;;11.50;96.70;;;;;;4912762;29;20052;-73
2022/12/30 03:55:01;;;;;;;5.22;1.42;;;11.40;96.70;;;;;;4904317;29;20055;-74
2022/12/30 03:57:33;;;;;;;4.22;2.00;;;11.40;96.70;;;;;;4907730;29;20115;-74
2022/12/30 04:00:01;;;;;;;2.00;1.50;;;11.40;96.70;;;;;;4878086;29;20139;-74
2022/12/30 04:02:39;;;;;;;3.70;1.60;;;11.30;96.70;;;;;;4902785;29;20054;-75
2022/12/30 04:05:08;;;;;;;4.55;1.70;;;11.30;96.70;;;;;;4899915;29;20040;-73
2022/12/30 04:07:39;;;;;;;2.58;1.75;;;11.40;96.70;;;;;;4884094;29;20732;-73
2022/12/30 04:10:08;;;;;;;2.58;1.70;;;11.30;96.70;;;;;;4882651;29;20052;-74
2022/12/30 04:12:37;;;;;;;4.00;2.03;;;11.30;96.70;;;;;;4918443;29;20581;-74
2022/12/30 04:15:06;;;;;;;3.15;2.58;;;11.40;96.70;;;;;;4919466;29;20446;-75
2022/12/30 04:17:34;;;;;;;6.18;3.15;;;11.40;96.70;;;;;;4884968;29;20063;-74
2022/12/30 04:20:04;;;;;;;5.85;3.15;;;11.40;96.70;;;;;;4911309;29;20048;-74
2022/12/30 04:22:32;;;;;;;4.68;3.50;;;11.40;96.70;;;;;;4892873;29;20055;-75
2022/12/30 04:25:02;;;;;;;6.35;4.10;;;11.40;96.70;;;;;;4908312;29;20054;-74
2022/12/30 04:27:31;;;;;;;6.63;3.50;;;11.40;96.70;;;;;;4896093;29;20047;-74
2022/12/30 04:29:59;;;;;;;7.70;3.78;;;11.40;96.70;;;;;;4894103;29;20044;-74
2022/12/30 04:32:27;;;;;;;5.13;3.70;;;11.40;96.70;;;;;;4917459;29;20498;-74
2022/12/30 04:34:56;;;;;;;6.35;3.40;;;11.40;96.70;;;;;;4899751;29;20256;-74
2022/12/30 04:37:24;;;;;;;4.15;2.95;;;11.40;96.70;;;;;;4881212;29;20073;-74
2022/12/30 04:39:52;;;;;;;5.65;2.90;;;11.30;96.70;;;;;;4891580;29;20051;-75
2022/12/30 04:42:22;;;;;;;5.43;2.50;;;11.30;96.70;;;;;;4924131;29;20146;-74
2022/12/30 04:44:51;;;;;;;4.25;2.22;;;11.30;96.70;;;;;;4877196;29;20119;-75
2022/12/30 04:47:19;;;;;;;3.97;2.30;;;11.40;96.70;;;;;;4909524;29;20078;-74
2022/12/30 04:49:47;;;;;;;5.38;2.80;;;11.40;96.70;;;;;;4879312;29;20052;-73
2022/12/30 04:52:16;;;;;;;3.70;2.33;;;11.40;96.70;;;;;;4919260;29;20070;-74
2022/12/30 04:54:44;;;;;;;4.15;2.53;;;11.40;96.70;;;;;;4887556;29;20091;-74
2022/12/30 04:57:12;;;;;;;6.95;3.67;;;11.40;96.70;;;;;;4901527;29;20721;-74
2022/12/30 04:59:42;;;;;;;6.25;2.58;;;11.40;96.70;;;;;;4892446;29;20047;-74
2022/12/30 05:02:11;;;;;;;5.68;3.17;;;11.40;96.70;;;;;;4891019;29;20056;-74
2022/12/30 05:04:39;;;;;;;6.40;3.42;;;11.40;96.70;;;;;;4914096;29;20136;-74
2022/12/30 05:07:08;;;;;;;5.15;2.88;;;11.40;96.70;;;;;;4907163;29;20123;-74
2022/12/30 05:09:36;;;;;;;5.15;2.78;;;11.30;96.70;;;;;;4891128;29;20104;-75
2022/12/30 05:12:05;;;;;;;5.38;3.08;;;11.30;96.70;;;;;;4911389;29;20126;-74
2022/12/30 05:14:33;;;;;;;5.88;2.85;;;11.30;96.70;;;;;;4893573;29;20635;-74
2022/12/30 05:17:03;;;;;;;5.95;2.90;;;11.30;96.70;;;;;;4899384;29;20126;-74
2022/12/30 05:19:32;;;;;;;5.75;3.33;;;11.30;96.70;;;;;;4914160;29;20040;-75
2022/12/30 05:22:00;;;;;;;5.18;3.03;;;11.30;96.70;;;;;;4894416;29;20044;-73
2022/12/30 05:27:15;;;;;;;5.93;3.40;;;11.20;96.70;;;;;;4915527;29;20487;-74
2022/12/30 05:29:44;;;;;;;4.85;3.45;;;11.20;96.70;;;;;;4892612;29;20048;-74
2022/12/30 05:32:14;;;;;;;4.38;3.22;;;11.30;96.70;;;;;;4889001;29;20537;-73
2022/12/30 05:34:42;;;;;;;5.05;2.97;;;11.30;96.70;;;;;;4892494;29;20055;-74
2022/12/30 05:37:10;;;;;;;3.22;2.63;;;11.30;96.70;;;;;;4889699;29;20083;-74
2022/12/30 05:39:39;;;;;;;4.35;3.08;;;11.30;96.70;;;;;;4879756;29;20052;-72
2022/12/30 05:42:07;;;;;;;4.85;3.70;;;11.30;96.70;;;;;;4896940;29;20590;-74
2022/12/30 05:44:36;;;;;;;4.15;2.90;;;11.30;96.70;;;;;;4893981;29;20102;-74
2022/12/30 05:47:04;;;;;;;6.15;3.75;;;11.30;96.70;;;;;;4904773;29;20047;-74
2022/12/30 05:49:34;;;;;;;8.32;4.45;;;11.40;96.70;;;;;;4889184;29;20140;-73
2022/12/30 05:52:11;;;;;;;7.78;4.25;;;11.40;96.70;;;;;;4896055;29;20052;-73
2022/12/30 05:54:40;;;;;;;8.60;4.97;;;11.40;96.70;;;;;;4889949;29;20052;-73
2022/12/30 05:57:09;;;;;;;6.40;4.53;;;11.40;96.70;;;;;;4888764;29;20496;-73
2022/12/30 05:59:37;;;;;;;7.80;4.95;;;11.30;96.70;;;;;;4886246;29;20590;-74
2022/12/30 06:02:06;;;;;;;5.55;4.15;;;11.30;96.70;;;;;;4888316;29;21223;-74
2022/12/30 06:04:36;;;;;;;5.50;3.60;;;11.30;96.70;;;;;;4888937;29;20048;-74
2022/12/30 06:07:05;;;;;;;4.88;3.03;;;11.40;96.70;;;;;;4892775;29;20048;-73
2022/12/30 06:09:33;;;;;;;6.63;3.13;;;11.30;96.70;;;;;;4888937;29;20052;-73
2022/12/30 06:12:01;;;;;;;4.38;2.42;;;11.40;96.70;;;;;;4887571;29;20056;-74
2022/12/30 06:14:30;;;;;;;5.40;2.38;;;11.40;96.70;;;;;;4888461;29;20143;-74
2022/12/30 06:16:58;;;;;;;5.40;2.22;;;11.30;96.70;;;;;;4900342;29;20059;-74
2022/12/30 06:19:26;;;;;;;3.25;1.95;;;11.40;96.70;;;;;;4897038;29;20143;-73
2022/12/30 06:21:55;;;;;;;5.35;2.13;;;11.40;96.70;;;;;;4906105;29;20036;-74
2022/12/30 06:24:23;;;;;;;5.85;2.35;;;11.40;96.70;;;;;;4898462;29;20047;-74
2022/12/30 06:26:51;;;;;;;5.32;2.30;;;11.40;96.70;;;;;;4900572;29;20056;-74
2022/12/30 06:29:19;;;;;;;5.97;1.58;;;11.30;96.70;;;;;;4887231;29;20055;-74
2022/12/30 06:31:47;;;;;;;5.00;1.95;;;11.30;96.70;;;;;;4891985;29;20052;-74
2022/12/30 06:34:15;;;;;;;3.58;2.65;;;11.40;96.70;;;;;;4880008;29;20047;-74
2022/12/30 06:36:43;;;;;;;3.92;2.80;;;11.40;96.70;;;;;;4886411;29;20056;-73
2022/12/30 06:39:13;;;;;;;4.88;2.70;;;11.40;96.70;;;;;;4895029;29;20047;-73
2022/12/30 06:41:41;;;;;;;5.28;2.95;;;11.40;96.70;;;;;;4886576;29;20076;-74
2022/12/30 06:44:09;;;;;;;3.58;2.42;;;11.40;96.70;;;;;;4885922;29;20067;-73
2022/12/30 06:46:36;;;;;;;6.88;2.47;;;11.40;96.70;;;;;;4886265;29;20531;-74
2022/12/30 06:49:04;;;;;;;5.53;2.67;;;11.30;96.70;;;;;;4888896;29;20044;-74
2022/12/30 06:51:32;;;;;;;5.35;2.30;;;11.40;96.70;;;;;;4888184;29;20060;-74
2022/12/30 06:54:00;;;;;;;5.43;2.30;;;11.40;96.70;;;;;;4887092;29;20313;-74
2022/12/30 06:56:29;;;;;;;4.93;2.65;;;11.40;96.70;;;;;;4886858;29;20079;-74
2022/12/30 06:58:58;;;;;;;6.40;2.40;;;11.40;96.70;;;;;;4886722;29;20499;-74
2022/12/30 07:01:25;;;;;;;4.68;2.30;;;11.40;96.70;;;;;;4886098;29;20186;-74
2022/12/30 07:03:53;;;;;;;7.97;3.03;;;11.40;96.70;;;;;;4895164;29;20048;-74
2022/12/30 07:06:21;;;;;;;5.80;2.30;;;11.30;96.70;;;;;;4891062;29;20055;-73
2022/12/30 07:08:49;;;;;;;4.07;2.00;;;11.30;96.70;;;;;;4889753;29;20051;-74
2022/12/30 07:11:17;;;;;;;4.97;2.20;;;11.30;96.70;;;;;;4891680;29;20572;-74
2022/12/30 07:13:46;;;;;;;5.25;2.28;;;11.30;96.70;;;;;;4878865;29;20147;-74
2022/12/30 07:16:14;;;;;;;4.18;2.20;;;11.30;96.70;;;;;;4893362;29;20056;-74
2022/12/30 07:18:42;;;;;;;4.85;2.40;;;11.40;96.70;;;;;;4874620;29;20056;-74
2022/12/30 07:21:10;;;;;;;5.60;2.88;;;11.40;96.70;;;;;;4897924;29;20533;-73
2022/12/30 07:23:37;;;;;;;6.65;3.20;;;11.40;96.70;;;;;;4889521;29;20127;-73
2022/12/30 07:26:05;;;;;;;5.57;2.42;;;11.40;96.70;;;;;;4874073;29;20297;-75
2022/12/30 07:28:33;;;;;;;5.03;2.35;;;11.50;96.70;;;;;;4891249;29;20048;-74
2022/12/30 07:31:02;;;;;;;5.05;2.95;;;11.50;96.70;;;;;;4897856;29;20066;-74
2022/12/30 07:33:30;;;;;;;6.05;3.80;;;11.50;96.70;;;;;;4900700;29;20051;-74
2022/12/30 07:35:58;;;;;;;5.57;3.85;;;11.50;96.70;;;;;;4890623;29;21105;-74
2022/12/30 07:38:26;;;;;;;8.88;4.78;;;11.50;96.70;;;;;;4890750;29;20504;-74
2022/12/30 07:40:54;;;;;;;6.85;4.03;;;11.60;96.70;;;;;;4888937;29;20112;-75
2022/12/30 07:43:22;;;;;;;7.68;3.90;;;11.60;96.70;;;;;;4895218;29;20067;-73
2022/12/30 07:45:49;;;;;;;6.10;4.05;;;11.70;96.70;;;;;;4900763;29;20139;-74
2022/12/30 07:48:19;;;;;;;6.15;4.10;;;11.70;96.70;;;;;;4911556;29;20040;-73
2022/12/30 07:50:46;;;;;;;5.85;3.97;;;11.70;96.70;;;;;;4896208;29;20364;-73
2022/12/30 07:53:14;;;;;;;7.50;4.47;;;11.70;96.70;;;;;;4917257;29;20050;-73
2022/12/30 07:55:42;;;;;;;7.43;4.90;;;11.80;96.70;;;;;;4915721;29;20043;-74
2022/12/30 07:58:10;;;;;;;5.53;4.18;;;11.80;96.70;;;;;;4883838;29;20047;-73
2022/12/30 08:00:38;;;;;;;6.70;4.10;;;11.80;96.70;;;;;;4900950;29;20491;-73
2022/12/30 08:03:06;;;;;;;6.07;4.15;;;11.90;96.70;;;;;;4912162;29;20043;-74
2022/12/30 08:05:36;;;;;;;8.65;4.00;;;11.90;96.70;;;;;;4895120;29;20056;-75
2022/12/30 08:08:04;;;;;;;6.30;4.28;;;11.90;96.70;;;;;;4895352;29;20122;-73
2022/12/30 08:10:32;;;;;;;6.30;3.92;;;11.90;96.70;;;;;;4906172;29;20050;-73
2022/12/30 08:13:00;;;;;;;7.40;4.22;;;12.00;96.70;;;;;;4910711;29;20055;-75
2022/12/30 08:15:28;;;;;;;8.30;3.92;;;12.00;96.70;;;;;;4909825;29;20052;-73
2022/12/30 08:17:56;;;;;;;6.93;3.92;;;12.10;96.70;;;;;;4908751;29;20511;-74
2022/12/30 08:20:24;;;;;;;7.90;4.10;;;12.10;96.70;;;;;;4892600;29;20098;-74
2022/12/30 08:22:54;;;;;;;5.07;4.15;;;12.20;96.70;;;;;;4894513;29;20051;-73
2022/12/30 08:25:22;;;;;;;8.50;4.18;;;12.20;96.70;;;;;;4878588;29;20048;-74
2022/12/30 08:27:50;;;;;;;8.32;3.65;;;12.20;96.70;;;;;;4911205;29;20044;-74
2022/12/30 08:30:18;;;;;;;6.40;4.10;;;12.30;96.70;;;;;;4915412;29;20577;-73
2022/12/30 08:32:46;;;;;;;8.15;3.95;;;12.30;96.70;;;;;;4912257;29;20044;-74
2022/12/30 08:35:14;;;;;;;6.95;3.80;;;12.40;96.70;;;;;;4914256;29;20059;-73
2022/12/30 08:37:42;;;;;;;8.00;4.13;;;12.40;96.70;;;;;;4909428;29;20036;-74
2022/12/30 08:40:12;;;;;;;9.57;4.30;;;12.40;96.70;;;;;;4895295;29;20044;-73
2022/12/30 08:42:40;;;;;;;7.15;3.97;;;12.50;96.70;;;;;;4913743;29;20058;-73
2022/12/30 08:45:09;;;;;;;5.03;4.05;;;12.50;96.70;;;;;;4915904;29;20510;-73
2022/12/30 08:47:37;;;;;;;6.72;4.15;;;12.50;96.70;;;;;;4894408;29;21241;-74
2022/12/30 08:50:05;;;;;;;9.25;4.88;;;12.50;96.70;;;;;;4890865;29;20529;-74
2022/12/30 08:52:35;;;;;;;6.68;4.07;;;12.60;96.70;;;;;;4915209;29;20489;-73
2022/12/30 08:55:03;;;;;;;7.03;3.88;;;12.70;96.70;;;;;;4912367;29;20142;-73
2022/12/30 08:57:33;;;;;;;6.07;4.10;;;12.80;96.70;;;;;;4888597;29;20048;-74
2022/12/30 09:00:01;;;;;;;9.90;4.85;;;12.90;96.70;;;;;;4878152;29;20044;-73
2022/12/30 09:02:29;;;;;;;9.13;4.93;;;13.10;96.70;;;;;;4891449;29;20496;-74
2022/12/30 09:04:57;;;;;;;11.05;5.40;;;13.20;96.70;;;;;;4894270;29;20142;-75
2022/12/30 09:07:26;;;;;;;10.90;6.43;;;13.30;96.70;;;;;;4912659;29;20451;-74
2022/12/30 09:10:14;;;;;;;14.70;6.65;;;13.40;96.70;;;;;;4907868;29;20051;-74
2022/12/30 09:12:43;;;;;;;12.10;7.20;;;13.50;96.70;;;;;;4890930;29;20048;-74
2022/12/30 09:15:11;;;;;;;12.25;7.65;;;13.60;96.70;;;;;;4914646;29;20048;-75
2022/12/30 09:17:39;;;;;;;13.25;7.80;;;13.70;96.70;;;;;;4886908;29;20047;-74
2022/12/30 09:20:08;;;;;;;10.63;7.45;;;13.80;96.70;;;;;;4909133;29;20047;-74
2022/12/30 09:22:36;;;;;;;13.07;7.00;;;13.70;96.70;;;;;;4907283;29;20048;-74
2022/12/30 09:25:05;;;;;;;9.25;6.50;;;13.70;96.70;;;;;;4883498;29;20052;-75
2022/12/30 09:27:33;;;;;;;11.18;5.75;;;13.60;96.70;;;;;;4893060;29;20709;-74
2022/12/30 09:30:03;;;;;;;9.27;6.03;;;13.70;96.70;;;;;;4921943;29;20047;-74
2022/12/30 09:32:31;;;;;;;11.23;6.03;;;13.70;96.70;;;;;;4900727;29;20139;-74
2022/12/30 09:34:59;;;;;;;9.43;6.03;;;13.70;96.70;;;;;;4896489;29;20047;-74
2022/12/30 09:37:27;;;;;;;13.90;6.80;;;13.70;96.70;;;;;;4892516;29;20059;-74
2022/12/30 09:39:55;;;;;;;14.70;6.63;;;13.70;96.70;;;;;;4896626;29;20040;-73
2022/12/30 09:43:31;;;;;;;8.73;5.85;;;13.70;96.70;;;;;;4891245;29;20044;-73
2022/12/30 09:45:40;;;;;;;10.45;6.85;;;13.80;96.70;;;;;;4905603;29;20627;-73
2022/12/30 09:48:16;;;;;;;12.20;7.50;;;13.90;96.70;;;;;;4890763;29;20111;-73
2022/12/30 09:50:49;;;;;;;12.27;8.35;;;13.90;96.70;;;;;;4913754;29;20615;-73
2022/12/30 09:53:23;;;;;;;12.45;7.43;;;13.90;96.70;;;;;;4897587;29;20052;-73
2022/12/30 09:56:02;;;;;;;11.18;6.32;;;14.00;96.70;;;;;;4904750;29;20525;-73
2022/12/30 09:58:33;;;;;;;13.77;6.10;;;14.00;96.70;;;;;;4917141;29;20043;-73
2022/12/30 10:01:11;;;;;;;11.45;6.13;;;14.10;96.70;;;;;;4909389;29;20103;-73
2022/12/30 10:03:39;;;;;;;6.93;5.13;;;14.10;96.70;;;;;;4890621;29;20151;-73
2022/12/30 10:06:29;;;;;;;12.50;5.88;;;14.10;96.70;;;;;;4911558;29;20048;-74
2022/12/30 10:09:26;;;;;;;7.82;4.85;;;14.20;96.70;;;;;;4878514;29;20067;-74
2022/12/30 10:12:11;;;;;;;9.68;5.05;;;14.30;96.70;;;;;;4897602;29;20055;-75
2022/12/30 10:14:48;;;;;;;12.05;6.80;;;14.30;96.70;;;;;;4897384;29;20353;-73
2022/12/30 10:17:25;;;;;;;;;;;14.40;96.70;;;;;;4910292;29;20637;-74
2022/12/30 10:20:02;;;;;;;11.80;5.90;;;14.40;96.70;;;;;;4896583;29;19957;-74
2022/12/30 10:22:39;;;;;;;7.85;5.18;;;14.40;96.70;;;;;;4896839;29;20039;-73
2022/12/30 10:25:25;;;;;;;7.93;5.30;;;14.40;96.70;;;;;;4893091;29;20055;-73
2022/12/30 10:27:56;;;;;;;15.55;10.10;;;14.40;96.70;;;;;;4896109;29;20513;-75
2022/12/30 10:30:29;;;;;;;12.93;6.47;;;14.50;96.70;;;;;;4914339;29;20063;-74
2022/12/30 10:33:02;;;;;;;13.88;8.63;;;14.50;96.70;;;;;;4882446;29;20071;-74
2022/12/30 10:35:32;;;;;;;7.88;5.63;;;14.50;96.70;;;;;;4906852;29;20048;-74
2022/12/30 10:38:09;;;;;;;19.52;8.98;;;14.60;96.70;;;;;;4891816;29;20044;-74
2022/12/30 10:40:48;;;;;;;10.50;5.85;;;14.60;96.70;;;;;;4893300;29;20543;-74
2022/12/30 10:43:39;;;;;;;9.57;4.85;;;14.60;96.70;;;;;;4910553;29;20064;-74
2022/12/30 10:46:30;;;;;;;11.10;5.45;;;14.60;96.70;;;;;;4910505;29;20606;-74
2022/12/30 10:49:30;;;;;;;8.40;5.10;;;14.60;96.70;;;;;;4895397;29;20060;-74
2022/12/30 10:51:58;;;;;;;6.28;4.47;;;14.70;96.70;;;;;;4894668;29;20416;-74
2022/12/30 10:54:26;;;;;;;5.97;4.35;;;14.70;96.70;;;;;;4892574;29;20143;-74
2022/12/30 10:56:54;;;;;;;10.18;4.85;;;14.70;96.70;;;;;;4893132;29;20051;-74
2022/12/30 10:59:25;;;;;;;12.35;5.03;;;14.80;96.70;;;;;;4897088;29;20079;-73
2022/12/30 11:01:59;;;;;;;6.60;5.22;;;14.80;96.70;;;;;;4900906;29;20126;-75
2022/12/30 11:04:37;;;;;;;9.07;5.30;;;14.80;96.70;;;;;;4893171;29;20513;-74
2022/12/30 11:07:07;;;;;;;9.32;5.22;;;14.90;96.70;;;;;;4909872;29;20155;-74
2022/12/30 11:09:36;;;;;;;10.80;5.55;;;14.90;96.70;;;;;;4909987;29;20546;-73
2022/12/30 11:15:22;;;;;;;11.48;5.10;;;15.10;96.70;;;;;;4909489;29;20059;-74
2022/12/30 11:17:53;;;;;;;6.78;4.85;;;15.30;96.70;;;;;;4893586;29;20048;-74
2022/12/30 11:20:30;;;;;;;8.23;5.40;;;15.60;96.70;;;;;;4904916;29;20418;-73
2022/12/30 11:22:59;;;;;;;7.53;4.85;;;15.90;96.70;;;;;;4899881;29;20083;-74
2022/12/30 11:25:29;;;;;;;9.40;5.97;;;16.00;96.70;;;;;;4909805;29;20083;-74
2022/12/30 11:28:00;;;;;;;8.70;4.90;;;16.10;96.70;;;;;;4892559;29;20055;-74
2022/12/30 11:30:32;;;;;;;12.23;6.38;;;16.20;96.70;;;;;;4917833;29;20513;-74
2022/12/30 11:33:04;;;;;;;12.48;5.13;;;16.40;96.70;;;;;;4919994;29;20051;-74
2022/12/30 11:35:43;;;;;;;8.93;5.25;;;16.40;96.70;;;;;;4918838;29;20502;-74
2022/12/30 11:38:31;;;;;;;10.05;5.18;;;16.50;96.70;;;;;;4919993;29;20048;-74
2022/12/30 11:41:25;;;;;;;8.65;5.50;;;16.60;96.70;;;;;;4891997;29;20133;-74
2022/12/30 11:44:13;;;;;;;9.98;4.68;;;16.40;96.70;;;;;;4892245;29;20056;-74
2022/12/30 11:47:12;;;;;;;7.03;5.20;;;16.50;96.70;;;;;;4892122;29;20123;-74
2022/12/30 11:49:47;;;;;;;9.70;5.13;;;16.80;96.70;;;;;;4915211;29;20127;-74
2022/12/30 11:52:20;;;;;;;9.38;4.88;;;17.10;96.70;;;;;;4891797;29;20706;-74
2022/12/30 11:54:52;;;;;;;8.88;5.20;;;17.10;96.70;;;;;;4900944;29;20434;-74
2022/12/30 11:57:27;;;;;;;8.80;5.32;;;17.00;96.70;;;;;;4915330;29;20044;-74
2022/12/30 11:59:56;;;;;;;10.15;4.72;;;17.00;96.70;;;;;;4908674;29;20044;-74
2022/12/30 12:02:27;;;;;;;9.15;5.30;;;17.10;96.70;;;;;;4911265;29;20044;-74
2022/12/30 12:04:55;;;;;;;8.73;4.68;;;17.10;96.70;;;;;;4908866;29;20087;-74
2022/12/30 12:07:36;;;;;;;7.45;4.03;;;17.10;96.70;;;;;;4909124;29;20712;-74
2022/12/30 12:10:14;;;;;;;7.70;4.25;;;17.50;96.70;;;;;;4920195;29;20039;-74
2022/12/30 12:12:47;;;;;;;12.57;5.10;;;17.50;96.70;;;;;;4900474;29;20051;-74
2022/12/30 12:15:27;;;;;;;7.72;5.38;;;17.50;96.70;;;;;;4916500;29;20044;-74
2022/12/30 12:17:58;;;;;;;10.55;5.25;;;17.60;96.70;;;;;;4899234;29;20447;-74
2022/12/30 12:20:34;;;;;;;8.82;5.45;;;17.70;96.70;;;;;;4897332;29;20051;-74
2022/12/30 12:23:12;;;;;;;9.52;6.35;;;17.80;96.70;;;;;;4890918;29;20111;-74
2022/12/30 12:25:46;;;;;;;12.63;5.55;;;17.60;96.70;;;;;;4891561;29;20054;-74
2022/12/30 12:28:14;;;;;;;9.95;5.40;;;17.40;96.70;;;;;;4891328;29;20127;-74
2022/12/30 12:31:03;;;;;;;11.73;4.60;;;17.30;96.70;;;;;;4891052;29;20550;-74
2022/12/30 12:33:40;;;;;;;5.95;3.78;;;17.20;96.70;;;;;;4908624;29;20135;-74
2022/12/30 12:36:17;;;;;;;7.45;3.75;;;17.20;96.70;;;;;;4924632;29;20068;-74
2022/12/30 12:38:54;;;;;;;7.57;4.57;;;17.10;96.70;;;;;;4910975;29;20067;-74
2022/12/30 12:41:51;;;;;;;12.20;7.07;;;17.10;96.70;;;;;;4891403;29;20072;-74
2022/12/30 12:44:55;;;;;;;15.50;8.90;;;17.10;96.70;;;;;;4845980;29;20059;-75
2022/12/30 12:47:41;;;;;;;14.60;7.85;;;17.30;96.70;;;;;;4815760;29;20087;-74
2022/12/30 12:50:35;;;;;;;10.23;6.38;;;17.50;96.70;;;;;;4880067;29;20049;-74
2022/12/30 12:53:20;;;;;;;14.25;6.72;;;17.40;96.70;;;;;;4887391;29;20051;-75
2022/12/30 12:56:12;;;;;;;16.15;7.55;;;17.30;96.70;;;;;;4907674;29;20056;-74
2022/12/30 12:58:51;;;;;;;10.88;7.25;;;17.30;96.70;;;;;;4906363;29;20505;-74
2022/12/30 13:01:27;;;;;;;9.10;5.18;;;17.20;96.70;;;;;;4887532;29;20084;-75
2022/12/30 13:04:11;;;;;;;10.38;4.00;;;17.10;96.70;;;;;;4894088;29;20066;-74
2022/12/30 13:06:47;;;;;;;9.73;4.97;;;17.10;96.70;;;;;;4897522;29;20052;-74
2022/12/30 13:09:45;;;;;;;8.45;3.97;;;17.10;96.70;;;;;;4880926;29;20076;-74
2022/12/30 13:12:29;;;;;;;10.27;3.83;;;17.10;96.70;;;;;;4892984;29;20132;-73
2022/12/30 13:15:12;;;;;;;10.85;5.20;;;17.10;96.70;;;;;;4896342;29;20088;-74
2022/12/30 13:17:44;;;;;;;10.65;4.82;;;17.10;96.70;;;;;;4907189;29;20475;-74
2022/12/30 13:20:16;;;;;;;7.22;4.22;;;17.00;96.70;;;;;;4895026;29;20044;-74
2022/12/30 13:22:47;;;;;;;9.50;4.50;;;17.00;96.70;;;;;;4888650;29;20084;-74
2022/12/30 13:25:20;;;;;;;10.50;3.80;;;16.90;96.70;;;;;;4886538;29;20064;-74
2022/12/30 13:27:54;;;;;;;11.70;5.30;;;17.00;96.70;;;;;;4888482;29;20051;-74
2022/12/30 13:30:26;;;;;;;15.90;11.85;;;17.00;96.70;;;;;;4887366;29;20051;-74
2022/12/30 13:33:06;;;;;;;7.38;4.85;;;17.00;96.70;;;;;;4887811;29;20041;-74
2022/12/30 13:35:52;;;;;;;7.30;3.10;;;17.00;96.70;;;;;;4891175;29;21156;-75
2022/12/30 13:38:34;;;;;;;12.52;7.25;;;16.90;96.70;;;;;;4878854;29;20048;-75
2022/12/30 13:41:25;;;;;;;10.82;5.80;;;16.90;96.70;;;;;;4888010;29;20048;-74
2022/12/30 13:43:57;;;;;;;10.90;3.90;;;16.90;96.70;;;;;;4897121;29;20072;-74
2022/12/30 13:46:29;;;;;;;6.90;2.88;;;16.90;96.70;;;;;;4890785;29;20555;-74
2022/12/30 13:49:00;;;;;;;8.65;3.13;;;16.90;96.70;;;;;;4877185;29;20047;-74
2022/12/30 13:51:29;;;;;;;10.18;4.80;;;16.90;96.70;;;;;;4906977;29;20060;-74
2022/12/30 13:54:07;;;;;;;9.52;3.00;;;16.90;96.70;;;;;;4906882;29;20446;-74
2022/12/30 13:56:37;;;;;;;9.88;4.07;;;16.80;96.70;;;;;;4923126;29;20052;-74
2022/12/30 13:59:24;;;;;;;16.70;6.30;;;16.80;96.70;;;;;;4899048;29;20051;-74
2022/12/30 14:02:07;;;;;;;;;;;16.80;96.70;;;;;;4920382;29;20040;-74
2022/12/30 14:04:44;;;;;;;10.60;4.85;;;16.80;96.70;;;;;;4890611;29;20388;-74
2022/12/30 14:07:47;;;;;;;6.38;3.17;;;16.80;96.70;;;;;;4890258;29;20578;-74